createdAt,value
2022-09-23T00:01:11.863Z,5.57
2022-09-23T00:04:15.740Z,5.59
2022-09-23T00:07:22.639Z,5.57
2022-09-23T00:10:31.199Z,5.63
2022-09-23T00:17:32.485Z,5.63
2022-09-23T00:20:36.807Z,5.65
2022-09-23T00:23:41.677Z,5.62
2022-09-23T00:26:51.976Z,5.60
2022-09-23T00:30:00.066Z,5.59
2022-09-23T00:33:07.262Z,5.60
2022-09-23T00:36:16.512Z,5.59
2022-09-23T00:39:22.408Z,5.55
2022-09-23T00:42:28.625Z,5.54
2022-09-23T00:45:32.362Z,5.50
2022-09-23T00:48:45.089Z,5.50
2022-09-23T00:51:59.216Z,5.46
2022-09-23T00:55:08.132Z,5.43
2022-09-23T00:58:15.324Z,5.45
2022-09-23T01:01:29.080Z,5.48
2022-09-23T01:04:32.025Z,5.44
2022-09-23T01:07:35.341Z,5.41
2022-09-23T01:10:57.498Z,5.43
2022-09-23T01:14:10.527Z,5.36
2022-09-23T01:17:25.014Z,5.37
2022-09-23T01:20:45.208Z,5.29
2022-09-23T01:24:07.885Z,5.24
2022-09-23T01:27:25.557Z,5.26
2022-09-23T01:30:48.358Z,5.21
2022-09-23T01:33:56.791Z,5.22
2022-09-23T01:37:30.974Z,5.24
2022-09-23T01:41:00.303Z,5.21
2022-09-23T01:44:43.884Z,5.24
2022-09-23T01:47:58.415Z,5.23
2022-09-23T01:51:28.960Z,5.26
2022-09-23T01:55:05.560Z,5.22
2022-09-23T01:58:16.088Z,5.19
2022-09-23T02:01:46.256Z,5.19
2022-09-23T02:05:11.020Z,5.20
2022-09-23T02:08:21.467Z,5.23
2022-09-23T02:11:25.292Z,5.22
2022-09-23T02:14:41.689Z,5.13
2022-09-23T02:18:20.519Z,5.15
2022-09-23T02:21:30.025Z,5.11
2022-09-23T02:24:39.054Z,5.11
2022-09-23T02:27:57.700Z,5.07
2022-09-23T02:31:34.223Z,5.05
2022-09-23T02:35:07.114Z,5.03
2022-09-23T02:38:36.885Z,5.03
2022-09-23T02:41:40.158Z,5.04
2022-09-23T02:44:43.332Z,5.02
2022-09-23T02:47:50.519Z,5.05
2022-09-23T02:50:54.804Z,5.03
2022-09-23T02:53:59.038Z,5.00
2022-09-23T02:57:28.709Z,4.97
2022-09-23T03:01:11.436Z,4.99
2022-09-23T03:04:49.260Z,4.94
2022-09-23T03:08:07.693Z,4.91
2022-09-23T03:11:13.600Z,4.80
2022-09-23T03:14:29.137Z,4.78
2022-09-23T03:18:08.925Z,4.76
2022-09-23T03:21:29.471Z,4.76
2022-09-23T03:24:58.321Z,4.80
2022-09-23T03:28:08.123Z,4.66
2022-09-23T03:31:15.331Z,4.61
2022-09-23T03:34:28.289Z,4.60
2022-09-23T03:37:49.324Z,4.58
2022-09-23T03:41:01.531Z,4.60
2022-09-23T03:44:07.306Z,4.57
2022-09-23T03:47:13.739Z,4.53
2022-09-23T03:50:17.393Z,4.51
2022-09-23T03:53:22.244Z,4.52
2022-09-23T03:56:25.707Z,4.53
2022-09-23T03:59:51.693Z,4.58
2022-09-23T04:02:54.670Z,4.59
2022-09-23T04:05:58.433Z,4.56
2022-09-23T04:09:21.786Z,4.52
2022-09-23T04:12:27.566Z,4.51
2022-09-23T04:15:33.851Z,4.48
2022-09-23T04:18:40.851Z,4.52
2022-09-23T04:21:44.941Z,4.46
2022-09-23T04:24:49.603Z,4.41
2022-09-23T04:27:54.906Z,4.40
2022-09-23T04:31:00.417Z,4.38
2022-09-23T04:34:03.540Z,4.36
2022-09-23T04:37:07.620Z,4.45
2022-09-23T04:40:10.374Z,4.45
2022-09-23T04:43:23.688Z,4.42
2022-09-23T04:47:08.219Z,4.41
2022-09-23T04:50:15.635Z,4.36
2022-09-23T04:53:21.626Z,4.37
2022-09-23T04:56:32.629Z,4.39
2022-09-23T04:59:36.282Z,4.39
2022-09-23T05:02:59.981Z,4.42
2022-09-23T05:06:06.144Z,4.54
2022-09-23T05:09:16.347Z,4.56
2022-09-23T05:12:18.868Z,4.64
2022-09-23T05:15:22.233Z,4.74
2022-09-23T05:18:27.295Z,4.79
2022-09-23T05:21:55.735Z,4.91
2022-09-23T05:25:18.760Z,4.99
2022-09-23T05:28:32.984Z,5.13
2022-09-23T05:31:35.694Z,5.23
2022-09-23T05:34:43.192Z,5.30
2022-09-23T05:37:49.559Z,5.46
2022-09-23T05:41:28.581Z,5.62
2022-09-23T05:44:32.991Z,5.80
2022-09-23T05:47:38.300Z,5.97
2022-09-23T05:51:02.373Z,6.06
2022-09-23T05:54:25.777Z,6.27
2022-09-23T05:57:29.372Z,6.46
2022-09-23T06:00:39.395Z,6.60
2022-09-23T06:03:51.925Z,6.75
2022-09-23T06:07:03.288Z,6.89
2022-09-23T06:10:07.508Z,7.14
2022-09-23T06:13:15.976Z,7.47
2022-09-23T06:16:19.522Z,7.83
2022-09-23T06:19:21.981Z,8.20
2022-09-23T06:22:28.226Z,8.55
2022-09-23T06:25:35.554Z,8.90
2022-09-23T06:28:47.709Z,9.16
2022-09-23T06:31:55.153Z,9.45
2022-09-23T06:35:04.588Z,9.81
2022-09-23T06:38:09.358Z,10.09
2022-09-23T06:41:13.365Z,10.31
2022-09-23T06:44:16.929Z,10.53
2022-09-23T06:47:22.191Z,10.68
2022-09-23T06:50:29.150Z,11.04
2022-09-23T06:53:33.955Z,11.28
2022-09-23T06:56:40.041Z,11.62
2022-09-23T06:59:50.111Z,11.94
2022-09-23T07:03:23.210Z,12.19
2022-09-23T07:06:28.196Z,12.28
2022-09-23T07:09:33.642Z,12.52
2022-09-23T07:12:46.350Z,12.75
2022-09-23T07:15:55.223Z,12.88
2022-09-23T07:19:00.355Z,13.25
2022-09-23T07:22:05.470Z,13.26
2022-09-23T07:25:12.482Z,13.46
2022-09-23T07:28:15.437Z,13.63
2022-09-23T07:31:31.023Z,13.77
2022-09-23T07:34:37.813Z,13.97
2022-09-23T07:37:40.798Z,14.07
2022-09-23T07:40:49.922Z,14.52
2022-09-23T07:43:58.916Z,14.69
2022-09-23T07:47:06.956Z,14.78
2022-09-23T07:50:11.704Z,14.85
2022-09-23T07:53:16.016Z,14.94
2022-09-23T07:56:25.385Z,15.13
2022-09-23T07:59:31.976Z,15.18
2022-09-23T08:02:35.214Z,15.31
2022-09-23T08:05:38.784Z,15.44
2022-09-23T08:08:44.500Z,15.89
2022-09-23T08:11:50.747Z,16.31
2022-09-23T08:14:53.958Z,16.04
2022-09-23T08:18:00.531Z,16.33
2022-09-23T08:21:08.092Z,16.31
2022-09-23T08:24:18.387Z,16.35
2022-09-23T08:27:23.476Z,16.64
2022-09-23T08:30:26.332Z,16.62
2022-09-23T08:33:29.161Z,16.82
2022-09-23T08:36:36.186Z,16.92
2022-09-23T08:40:00.978Z,17.26
2022-09-23T08:43:17.078Z,17.66
2022-09-23T08:46:30.937Z,18.08
2022-09-23T08:49:58.109Z,18.56
2022-09-23T08:53:07.649Z,18.86
2022-09-23T08:56:19.392Z,18.91
2022-09-23T08:59:35.319Z,18.75
2022-09-23T09:03:18.694Z,19.56
2022-09-23T09:06:53.059Z,19.91
2022-09-23T09:10:18.713Z,20.04
2022-09-23T09:14:02.740Z,20.61
2022-09-23T09:17:17.886Z,19.87
2022-09-23T09:20:24.952Z,20.77
2022-09-23T09:23:38.108Z,21.48
2022-09-23T09:26:40.591Z,20.93
2022-09-23T09:29:50.095Z,21.20
2022-09-23T09:33:02.666Z,21.70
2022-09-23T09:36:21.652Z,21.84
2022-09-23T09:39:26.303Z,21.85
2022-09-23T09:42:41.672Z,22.20
2022-09-23T09:46:23.482Z,21.09
2022-09-23T09:49:41.339Z,21.90
2022-09-23T09:52:43.865Z,22.13
2022-09-23T09:56:04.991Z,21.58
2022-09-23T09:59:32.708Z,20.97
2022-09-23T10:02:40.226Z,20.75
2022-09-23T10:05:46.619Z,20.98
2022-09-23T10:09:09.705Z,21.22
2022-09-23T10:12:20.440Z,21.56
2022-09-23T10:15:33.186Z,22.39
2022-09-23T10:18:42.100Z,23.43
2022-09-23T10:21:52.820Z,21.59
2022-09-23T10:25:03.690Z,21.68
2022-09-23T10:28:30.807Z,21.32
2022-09-23T10:31:35.793Z,21.48
2022-09-23T10:34:47.227Z,22.70
2022-09-23T10:38:13.352Z,23.49
2022-09-23T10:41:45.985Z,22.81
2022-09-23T10:45:51.056Z,20.88
2022-09-23T10:49:19.447Z,19.22
2022-09-23T10:52:38.064Z,21.77
2022-09-23T10:56:18.154Z,23.32
2022-09-23T11:00:00.890Z,23.35
2022-09-23T11:03:17.528Z,23.40
2022-09-23T11:06:46.230Z,22.66
2022-09-23T11:10:28.890Z,23.38
2022-09-23T11:14:40.408Z,23.54
2022-09-23T11:18:29.607Z,22.20
2022-09-23T11:22:16.222Z,22.34
2022-09-23T11:25:26.040Z,21.22
2022-09-23T11:29:04.557Z,21.95
2022-09-23T11:32:39.695Z,20.81
2022-09-23T11:36:24.566Z,19.66
2022-09-23T11:39:34.707Z,20.18
2022-09-23T11:43:18.551Z,19.21
2022-09-23T11:46:33.705Z,19.56
2022-09-23T11:49:54.803Z,19.85
2022-09-23T11:53:11.879Z,19.32
2022-09-23T11:56:36.224Z,19.45
2022-09-23T11:59:51.196Z,19.34
2022-09-23T12:03:09.323Z,18.97
2022-09-23T12:06:19.847Z,19.47
2022-09-23T12:10:00.249Z,19.43
2022-09-23T12:13:08.326Z,19.28
2022-09-23T12:16:49.061Z,19.06
2022-09-23T12:20:28.193Z,18.64
2022-09-23T12:23:49.359Z,18.97
2022-09-23T12:26:58.897Z,19.62
2022-09-23T12:30:24.021Z,18.86
2022-09-23T12:33:32.524Z,18.33
2022-09-23T12:36:38.788Z,18.43
2022-09-23T12:39:48.517Z,17.18
2022-09-23T12:42:53.741Z,17.18
2022-09-23T12:46:17.582Z,18.00
2022-09-23T12:49:29.764Z,18.27
2022-09-23T12:52:33.522Z,17.76
2022-09-23T12:55:39.037Z,17.68
2022-09-23T12:58:44.828Z,17.71
2022-09-23T13:01:51.040Z,17.60
2022-09-23T13:05:32.008Z,17.33
2022-09-23T13:08:38.779Z,17.76
2022-09-23T13:11:49.419Z,17.84
2022-09-23T13:15:00.727Z,18.19
2022-09-23T13:18:18.979Z,18.24
2022-09-23T13:21:42.842Z,17.05
2022-09-23T13:24:54.809Z,17.92
2022-09-23T13:28:01.605Z,17.72
2022-09-23T13:31:13.752Z,16.95
2022-09-23T13:34:21.370Z,17.23
2022-09-23T13:37:31.585Z,17.53
2022-09-23T13:40:35.453Z,17.67
2022-09-23T13:43:53.661Z,18.09
2022-09-23T13:47:03.237Z,18.20
2022-09-23T13:50:13.219Z,18.57
2022-09-23T13:53:24.108Z,18.32
2022-09-23T13:56:31.119Z,18.67
2022-09-23T13:59:46.811Z,19.09
2022-09-23T14:02:53.262Z,19.10
2022-09-23T14:06:08.771Z,18.51
2022-09-23T14:09:13.789Z,18.63
2022-09-23T14:12:22.412Z,18.17
2022-09-23T14:15:48.757Z,18.21
2022-09-23T14:18:59.656Z,17.74
2022-09-23T14:22:09.236Z,17.37
2022-09-23T14:25:45.838Z,17.56
2022-09-23T14:28:51.734Z,17.43
2022-09-23T14:32:00.667Z,17.29
2022-09-23T14:35:04.002Z,17.20
2022-09-23T14:38:49.697Z,17.08
2022-09-23T14:41:54.715Z,17.18
2022-09-23T14:44:57.480Z,17.19
2022-09-23T14:48:10.723Z,17.07
2022-09-23T14:51:17.195Z,17.03
2022-09-23T14:54:44.159Z,17.09
2022-09-23T14:58:02.041Z,17.07
2022-09-23T15:01:32.806Z,17.24
2022-09-23T15:04:36.502Z,17.44
2022-09-23T15:08:05.586Z,17.47
2022-09-23T15:11:11.207Z,17.55
2022-09-23T15:14:36.762Z,17.51
2022-09-23T15:17:37.578Z,17.58
2022-09-23T15:20:40.956Z,17.71
2022-09-23T15:24:06.192Z,17.80
2022-09-23T15:27:31.727Z,17.63
2022-09-23T15:30:35.624Z,17.69
2022-09-23T15:33:40.866Z,17.39
2022-09-23T15:36:43.736Z,16.98
2022-09-23T15:39:46.277Z,16.55
2022-09-23T15:42:52.637Z,16.85
2022-09-23T15:45:58.614Z,16.89
2022-09-23T15:49:03.223Z,16.81
2022-09-23T15:52:10.627Z,16.60
2022-09-23T15:55:22.923Z,16.36
2022-09-23T15:58:30.290Z,15.96
2022-09-23T16:01:39.631Z,15.71
2022-09-23T16:04:42.603Z,15.72
2022-09-23T16:07:48.329Z,15.60
2022-09-23T16:10:51.687Z,15.52
2022-09-23T16:13:54.512Z,15.45
2022-09-23T16:16:57.920Z,15.41
2022-09-23T16:20:07.814Z,15.29
2022-09-23T16:23:34.843Z,15.32
2022-09-23T16:26:39.611Z,15.27
2022-09-23T16:29:45.505Z,15.20
2022-09-23T16:32:52.777Z,15.09
2022-09-23T16:36:01.143Z,14.92
2022-09-23T16:39:07.327Z,14.67
2022-09-23T16:42:13.735Z,14.43
2022-09-23T16:45:22.291Z,14.17
2022-09-23T16:48:25.755Z,13.96
2022-09-23T16:51:31.663Z,13.66
2022-09-23T16:54:39.162Z,13.45
2022-09-23T16:57:41.776Z,13.25
2022-09-23T17:01:05.773Z,13.04
2022-09-23T17:07:37.420Z,12.68
2022-09-23T17:10:44.772Z,12.46
2022-09-23T17:13:50.637Z,12.27
2022-09-23T17:16:53.916Z,12.08
2022-09-23T17:19:58.834Z,11.94
2022-09-23T17:23:04.747Z,11.76
2022-09-23T17:26:28.263Z,11.67
2022-09-23T17:29:31.202Z,11.51
2022-09-23T17:32:34.092Z,11.37
2022-09-23T17:35:40.078Z,11.32
2022-09-23T17:38:46.728Z,11.18
2022-09-23T17:41:56.324Z,11.11
2022-09-23T17:44:59.444Z,10.99
2022-09-23T17:48:27.597Z,10.91
2022-09-23T17:51:30.179Z,10.75
2022-09-23T17:54:55.124Z,10.68
2022-09-23T17:57:57.856Z,10.59
2022-09-23T18:01:01.552Z,10.49
2022-09-23T18:04:10.324Z,10.41
2022-09-23T18:07:15.719Z,10.35
2022-09-23T18:10:18.425Z,10.23
2022-09-23T18:13:20.917Z,10.18
2022-09-23T18:16:34.764Z,10.08
2022-09-23T18:19:37.143Z,10.07
2022-09-23T18:22:40.320Z,9.97
2022-09-23T18:25:42.745Z,9.89
2022-09-23T18:28:48.203Z,9.78
2022-09-23T18:31:51.520Z,9.71
2022-09-23T18:34:57.805Z,9.67
2022-09-23T18:38:05.165Z,9.57
2022-09-23T18:41:12.481Z,9.47
2022-09-23T18:44:16.299Z,9.41
2022-09-23T18:47:39.001Z,9.36
2022-09-23T18:50:43.182Z,9.24
2022-09-23T18:53:50.317Z,9.21
2022-09-23T18:56:55.605Z,9.12
2022-09-23T19:00:00.901Z,9.04
2022-09-23T19:03:05.560Z,9.01
2022-09-23T19:06:11.687Z,8.91
2022-09-23T19:09:18.186Z,8.86
2022-09-23T19:12:25.753Z,8.77
2022-09-23T19:15:30.787Z,8.81
2022-09-23T19:18:34.313Z,8.73
2022-09-23T19:21:38.452Z,8.63
2022-09-23T19:24:41.478Z,8.53
2022-09-23T19:27:48.993Z,8.46
2022-09-23T19:30:53.173Z,8.40
2022-09-23T19:33:59.560Z,8.32
2022-09-23T19:37:05.263Z,8.25
2022-09-23T19:40:08.518Z,8.19
2022-09-23T19:43:15.779Z,8.14
2022-09-23T19:46:19.486Z,8.12
2022-09-23T19:49:27.168Z,8.07
2022-09-23T19:52:31.893Z,8.00
2022-09-23T19:55:38.086Z,8.05
2022-09-23T19:58:42.853Z,7.93
2022-09-23T20:01:45.723Z,7.88
2022-09-23T20:04:51.334Z,7.81
2022-09-23T20:07:55.429Z,7.75
2022-09-23T20:11:11.526Z,7.77
2022-09-23T20:14:14.331Z,7.82
2022-09-23T20:17:19.113Z,7.71
2022-09-23T20:20:23.772Z,7.64
2022-09-23T20:23:29.000Z,7.64
2022-09-23T20:26:50.124Z,7.62
2022-09-23T20:29:57.063Z,7.52
2022-09-23T20:33:00.705Z,7.49
2022-09-23T20:36:03.564Z,7.40
2022-09-23T20:39:07.269Z,7.31
2022-09-23T20:42:10.171Z,7.35
2022-09-23T20:45:12.608Z,7.31
2022-09-23T20:48:15.819Z,7.29
2022-09-23T20:51:18.574Z,7.24
2022-09-23T20:54:22.134Z,7.17
2022-09-23T20:57:24.998Z,7.10
2022-09-23T21:00:27.763Z,7.12
2022-09-23T21:03:35.245Z,7.05
2022-09-23T21:06:41.052Z,7.02
2022-09-23T21:09:45.971Z,7.04
2022-09-23T21:12:50.480Z,6.95
2022-09-23T21:15:53.033Z,6.94
2022-09-23T21:18:56.311Z,6.89
2022-09-23T21:21:58.708Z,6.86
2022-09-23T21:25:27.044Z,6.80
2022-09-23T21:28:26.623Z,6.83
2022-09-23T21:31:38.846Z,6.78
2022-09-23T21:34:42.096Z,6.81
2022-09-23T21:37:45.914Z,6.69
2022-09-23T21:40:57.939Z,6.65
2022-09-23T21:44:04.782Z,6.57
2022-09-23T21:47:32.445Z,6.57
2022-09-23T21:50:40.807Z,6.58
2022-09-23T21:53:47.294Z,6.48
2022-09-23T21:56:50.210Z,6.38
2022-09-23T21:59:58.796Z,6.42
2022-09-23T22:03:01.491Z,6.46
2022-09-23T22:06:13.472Z,6.38
2022-09-23T22:09:18.776Z,6.37
2022-09-23T22:12:21.535Z,6.31
2022-09-23T22:15:24.036Z,6.26
2022-09-23T22:18:28.865Z,6.22
2022-09-23T22:21:37.419Z,6.19
2022-09-23T22:24:46.114Z,6.10
2022-09-23T22:28:08.006Z,6.16
2022-09-23T22:31:29.626Z,6.10
2022-09-23T22:34:48.939Z,6.02
2022-09-23T22:37:58.056Z,6.00
2022-09-23T22:41:05.354Z,5.96
2022-09-23T22:44:08.276Z,5.92
2022-09-23T22:47:10.870Z,5.93
2022-09-23T22:50:16.718Z,5.85
2022-09-23T22:53:19.404Z,5.86
2022-09-23T22:56:22.409Z,5.82
2022-09-23T22:59:30.034Z,5.78
2022-09-23T23:02:33.060Z,5.75
2022-09-23T23:05:35.436Z,5.78
2022-09-23T23:08:41.831Z,5.72
2022-09-23T23:12:07.473Z,5.72
2022-09-23T23:15:13.339Z,5.69
2022-09-23T23:18:16.080Z,5.65
2022-09-23T23:21:22.762Z,5.63
2022-09-23T23:24:27.364Z,5.60
2022-09-23T23:27:30.334Z,5.55
2022-09-23T23:30:34.961Z,5.54
2022-09-23T23:33:42.148Z,5.50
2022-09-23T23:36:48.014Z,5.46
2022-09-23T23:39:52.739Z,5.44
2022-09-23T23:42:58.694Z,5.44
2022-09-23T23:46:04.640Z,5.36
2022-09-23T23:49:07.368Z,5.30
2022-09-23T23:52:10.581Z,5.33
2022-09-23T23:55:38.097Z,5.30
2022-09-23T23:58:46.463Z,5.31
